Time;durP1;ratioP1;P1;durP2;ratioP2;P2;SDS_P1;SDS_P2;PMS_P1;PMS_P2;Temp;Humidity;BMP_temperature;BMP_pressure;BME280_temperature;BME280_humidity;BME280_pressure;Samples;Min_cycle;Max_cycle;Signal;HPM_P1;HPM_P2
2023/02/28 14:45:56;;;;;;;;;;;;;;;19.19;21.26;98865.59;6210308;22;19943;-61
2023/02/28 14:48:22;;;;;;;;;;;;;;;18.72;20.99;98862.91;6188658;23;19916;-61
2023/02/28 14:50:48;;;;;;;;;;;;;;;18.89;22.09;98857.81;6188520;23;19915;-59
2023/02/28 14:53:15;;;;;;;;;;;;;;;18.91;21.90;98856.72;6212613;23;19915;-60
2023/02/28 14:55:43;;;;;;;;;;;;;;;19.04;21.46;98859.06;6186321;23;19916;-60
2023/02/28 14:58:17;;;;;;;;;;;;;;;18.86;21.28;98861.63;6187934;23;19946;-59
2023/02/28 15:00:47;;;;;;;;;;;;;;;18.24;21.02;98857.53;6187397;23;20242;-60
2023/02/28 15:03:32;;;;;;;;;;;;;;;17.99;21.45;98857.06;6188036;23;19911;-60
2023/02/28 15:06:02;;;;;;;;;;;;;;;18.35;21.59;98853.91;6212479;23;19934;-61
2023/02/28 15:08:28;;;;;;;;;;;;;;;18.32;21.74;98848.88;6215051;23;19908;-61
2023/02/28 15:11:00;;;;;;;;;;;;;;;18.03;22.04;98854.97;6214835;23;19908;-61
2023/02/28 15:13:46;;;;;;;;;;;;;;;18.19;22.52;98857.09;6188219;23;19914;-61
2023/02/28 15:16:31;;;;;;;;;;;;;;;18.08;22.37;98851.91;6213321;23;19962;-62
2023/02/28 15:19:00;;;;;;;;;;;;;;;17.88;22.12;98859.00;6188301;23;20271;-62
2023/02/28 15:21:26;;;;;;;;;;;;;;;17.69;23.58;98851.78;6188168;23;19954;-62
2023/02/28 15:23:53;;;;;;;;;;;;;;;17.44;23.09;98861.03;6187823;23;19912;-64
2023/02/28 15:26:19;;;;;;;;;;;;;;;17.26;23.51;98866.94;6187121;23;19987;-61
2023/02/28 15:28:44;;;;;;;;;;;;;;;16.98;23.00;98864.97;6187453;23;19960;-62
2023/02/28 15:31:29;;;;;;;;;;;;;;;16.64;23.43;98870.41;6187398;23;19911;-62
2023/02/28 15:33:55;;;;;;;;;;;;;;;16.35;24.38;98865.72;6188217;23;19907;-62
2023/02/28 15:36:23;;;;;;;;;;;;;;;16.14;24.41;98867.47;6187908;23;20303;-62
2023/02/28 15:38:51;;;;;;;;;;;;;;;16.00;24.29;98863.28;6213879;23;19958;-62
2023/02/28 15:41:21;;;;;;;;;;;;;;;15.83;24.71;98863.78;6213585;23;20307;-63
2023/02/28 15:43:46;;;;;;;;;;;;;;;15.59;25.21;98867.38;6214186;23;19919;-64
2023/02/28 15:46:13;;;;;;;;;;;;;;;15.36;25.39;98861.25;6188051;23;19911;-64
2023/02/28 15:48:44;;;;;;;;;;;;;;;15.10;25.90;98865.03;6187029;23;19958;-63
2023/02/28 15:51:19;;;;;;;;;;;;;;;14.93;26.37;98864.56;6214272;23;19915;-64
2023/02/28 15:53:47;;;;;;;;;;;;;;;14.77;26.68;98869.31;6188207;23;19908;-62
2023/02/28 15:56:21;;;;;;;;;;;;;;;14.40;26.54;98872.00;6213243;23;19908;-63
2023/02/28 15:58:47;;;;;;;;;;;;;;;13.98;26.76;98866.28;6188211;23;19908;-62
2023/02/28 16:01:17;;;;;;;;;;;;;;;13.55;27.80;98873.72;6187750;23;19987;-64
2023/02/28 16:03:48;;;;;;;;;;;;;;;12.89;28.85;98872.97;6186512;23;19912;-62
2023/02/28 16:06:33;;;;;;;;;;;;;;;12.34;30.03;98874.00;6187678;23;19908;-62
2023/02/28 16:08:58;;;;;;;;;;;;;;;11.89;30.63;98881.28;6188060;23;19940;-63
2023/02/28 16:11:24;;;;;;;;;;;;;;;11.54;31.04;98883.44;6214214;23;19908;-61
2023/02/28 16:13:49;;;;;;;;;;;;;;;11.11;31.69;98881.66;6212953;23;19908;-62
2023/02/28 16:16:15;;;;;;;;;;;;;;;10.80;32.21;98887.00;6184183;23;19919;-63
2023/02/28 16:18:40;;;;;;;;;;;;;;;10.49;33.16;98888.78;6186842;23;19908;-63
2023/02/28 16:21:05;;;;;;;;;;;;;;;10.23;34.08;98888.47;6213968;23;19914;-62
2023/02/28 16:23:31;;;;;;;;;;;;;;;9.95;34.39;98893.56;6213718;23;19998;-63
2023/02/28 16:25:56;;;;;;;;;;;;;;;9.73;35.19;98899.97;6213729;23;19946;-62
2023/02/28 16:28:25;;;;;;;;;;;;;;;9.47;34.86;98903.16;6212395;23;19923;-62
2023/02/28 16:30:51;;;;;;;;;;;;;;;9.31;34.98;98895.25;6186064;23;19995;-60
2023/02/28 16:33:16;;;;;;;;;;;;;;;9.17;36.46;98901.19;6162827;23;20303;-62
2023/02/28 16:35:41;;;;;;;;;;;;;;;8.99;36.65;98913.47;6214091;23;20306;-62
2023/02/28 16:38:06;;;;;;;;;;;;;;;8.79;36.17;98909.22;6211760;23;19943;-63
2023/02/28 16:40:33;;;;;;;;;;;;;;;8.56;36.26;98914.75;6186444;23;19908;-64
2023/02/28 16:42:58;;;;;;;;;;;;;;;8.44;38.79;98917.97;6186487;23;19907;-62
2023/02/28 16:45:27;;;;;;;;;;;;;;;8.28;37.86;98916.03;6161620;23;19916;-62
2023/02/28 16:47:52;;;;;;;;;;;;;;;8.13;38.79;98922.03;6213613;23;19908;-62
2023/02/28 16:50:21;;;;;;;;;;;;;;;7.96;38.28;98924.56;6212280;23;19908;-61
2023/02/28 16:52:47;;;;;;;;;;;;;;;7.81;38.39;98926.97;6213457;23;19931;-62
2023/02/28 16:55:13;;;;;;;;;;;;;;;7.67;38.25;98929.34;6186865;23;20228;-61
2023/02/28 16:57:38;;;;;;;;;;;;;;;7.48;39.60;98933.72;6187098;23;19974;-61
2023/02/28 17:00:03;;;;;;;;;;;;;;;7.35;40.20;98942.06;6186580;23;19908;-61
2023/02/28 17:02:29;;;;;;;;;;;;;;;7.24;41.29;98944.31;6186751;23;19939;-61
2023/02/28 17:04:54;;;;;;;;;;;;;;;7.11;40.18;98943.97;6212996;23;19912;-60
2023/02/28 17:07:19;;;;;;;;;;;;;;;6.99;41.59;98956.72;6212957;23;19915;-61
2023/02/28 17:09:44;;;;;;;;;;;;;;;6.87;41.73;98953.69;6213626;23;19908;-61
2023/02/28 17:12:10;;;;;;;;;;;;;;;6.80;41.87;98952.25;6213529;23;19908;-61
2023/02/28 17:14:36;;;;;;;;;;;;;;;6.66;42.23;98951.97;6213633;23;20228;-63
2023/02/28 17:17:01;;;;;;;;;;;;;;;6.58;42.84;98967.09;6211876;23;20385;-62
2023/02/28 17:19:27;;;;;;;;;;;;;;;6.53;43.04;98964.63;6213820;23;19908;-62
2023/02/28 17:21:53;;;;;;;;;;;;;;;6.46;43.60;98967.56;6212877;23;19915;-62
2023/02/28 17:24:18;;;;;;;;;;;;;;;6.35;43.35;98970.59;6213303;23;19912;-62
2023/02/28 17:26:43;;;;;;;;;;;;;;;6.27;44.03;98968.28;6213235;23;19908;-62
2023/02/28 17:29:11;;;;;;;;;;;;;;;6.20;43.23;98972.03;6213695;23;19931;-65
2023/02/28 17:31:38;;;;;;;;;;;;;;;6.08;43.83;98977.72;6188834;23;19991;-63
2023/02/28 17:34:03;;;;;;;;;;;;;;;6.01;44.33;98977.09;6215519;23;19915;-63
2023/02/28 17:36:28;;;;;;;;;;;;;;;5.92;44.43;98986.13;6215177;23;19908;-65
2023/02/28 17:38:55;;;;;;;;;;;;;;;5.84;45.02;98988.09;6188406;23;19908;-65
2023/02/28 17:41:20;;;;;;;;;;;;;;;5.77;45.04;98994.44;6214918;23;19912;-65
2023/02/28 17:43:45;;;;;;;;;;;;;;;5.71;44.92;98992.06;6188890;23;19911;-65
2023/02/28 17:46:14;;;;;;;;;;;;;;;5.66;45.87;98996.59;6188258;23;20358;-65
2023/02/28 17:48:39;;;;;;;;;;;;;;;5.47;44.08;98993.78;6187957;23;19916;-65
2023/02/28 17:51:05;;;;;;;;;;;;;;;5.35;45.18;98992.47;6214722;23;19916;-66
2023/02/28 17:53:30;;;;;;;;;;;;;;;5.28;45.40;98993.59;6215264;23;19985;-65
2023/02/28 17:55:55;;;;;;;;;;;;;;;5.21;45.05;99002.50;6215095;23;19912;-65
2023/02/28 17:58:20;;;;;;;;;;;;;;;5.12;45.02;98995.84;6214191;23;19974;-65
2023/02/28 18:00:47;;;;;;;;;;;;;;;5.06;45.62;98997.81;6188549;23;19912;-65
2023/02/28 18:03:13;;;;;;;;;;;;;;;4.96;46.10;98998.13;6188064;23;20411;-65
2023/02/28 18:05:38;;;;;;;;;;;;;;;4.91;47.09;98994.81;6188809;23;19943;-65
2023/02/28 18:08:03;;;;;;;;;;;;;;;4.84;46.27;99000.28;6187833;23;19908;-65
2023/02/28 18:10:32;;;;;;;;;;;;;;;4.79;46.74;99010.84;6214805;23;19912;-65
2023/02/28 18:12:58;;;;;;;;;;;;;;;4.74;46.09;99010.13;6188318;23;19930;-64
2023/02/28 18:15:23;;;;;;;;;;;;;;;4.68;46.94;99012.91;6215069;23;20248;-65
2023/02/28 18:17:48;;;;;;;;;;;;;;;4.64;46.82;99009.56;6215114;23;20353;-64
2023/02/28 18:20:14;;;;;;;;;;;;;;;4.59;47.36;99014.06;6213529;23;20344;-64
2023/02/28 18:22:39;;;;;;;;;;;;;;;4.56;47.15;99008.09;6188200;23;20332;-65
2023/02/28 18:25:05;;;;;;;;;;;;;;;4.48;46.86;99009.19;6214705;23;20354;-66
2023/02/28 18:27:30;;;;;;;;;;;;;;;4.77;50.98;99012.63;6188783;23;19989;-65
2023/02/28 18:29:56;;;;;;;;;;;;;;;4.62;48.12;99011.38;6214375;23;19915;-65
2023/02/28 18:32:21;;;;;;;;;;;;;;;4.52;47.04;99005.59;6214591;23;19911;-65
2023/02/28 18:34:46;;;;;;;;;;;;;;;4.41;48.21;99005.09;6214552;23;19915;-64
2023/02/28 18:37:11;;;;;;;;;;;;;;;4.34;48.85;99006.19;6215117;23;19915;-64
2023/02/28 18:39:36;;;;;;;;;;;;;;;4.25;49.50;99006.44;6214288;23;20291;-64
2023/02/28 18:42:02;;;;;;;;;;;;;;;4.20;49.50;99008.34;6213588;23;19915;-64
2023/02/28 18:44:27;;;;;;;;;;;;;;;4.12;48.54;99002.53;6188120;23;19919;-65
2023/02/28 18:46:52;;;;;;;;;;;;;;;4.05;50.12;98997.50;6187511;23;20255;-64
2023/02/28 18:49:17;;;;;;;;;;;;;;;4.00;50.32;98995.97;6214984;23;20294;-64
2023/02/28 18:51:44;;;;;;;;;;;;;;;3.94;49.29;98993.53;6186038;23;19908;-64
2023/02/28 18:54:09;;;;;;;;;;;;;;;3.91;48.82;99001.41;6214482;23;19966;-64
2023/02/28 18:56:34;;;;;;;;;;;;;;;3.84;48.89;99000.72;6187206;23;20324;-64
2023/02/28 18:59:00;;;;;;;;;;;;;;;3.83;50.37;98993.00;6212691;23;19911;-64
2023/02/28 19:01:28;;;;;;;;;;;;;;;3.80;49.31;98993.94;6185886;23;19946;-64
2023/02/28 19:03:53;;;;;;;;;;;;;;;3.74;50.56;98994.94;6162015;23;19918;-65
2023/02/28 19:06:19;;;;;;;;;;;;;;;3.69;51.10;99001.19;6214166;23;20002;-65
2023/02/28 19:08:44;;;;;;;;;;;;;;;3.67;52.25;98992.56;6214531;23;19908;-64
2023/02/28 19:11:14;;;;;;;;;;;;;;;3.65;51.36;98994.34;6185942;23;19908;-65
2023/02/28 19:13:39;;;;;;;;;;;;;;;3.57;51.47;98998.00;6187952;23;19931;-65
2023/02/28 19:16:05;;;;;;;;;;;;;;;3.51;50.76;98993.00;6214466;23;20323;-64
2023/02/28 19:18:31;;;;;;;;;;;;;;;3.47;51.58;98993.97;6187874;23;20432;-66
2023/02/28 19:20:56;;;;;;;;;;;;;;;3.38;50.45;99001.16;6212919;23;20244;-64
2023/02/28 19:23:21;;;;;;;;;;;;;;;3.34;51.39;99005.59;6213183;23;19996;-65
2023/02/28 19:25:46;;;;;;;;;;;;;;;3.30;51.78;99006.53;6211784;23;19916;-65
2023/02/28 19:28:12;;;;;;;;;;;;;;;3.23;52.48;99002.41;6212461;23;19912;-65
2023/02/28 19:30:37;;;;;;;;;;;;;;;3.20;51.20;99007.66;6212731;23;19954;-65
2023/02/28 19:33:02;;;;;;;;;;;;;;;3.15;51.96;99009.53;6212877;23;19908;-65
2023/02/28 19:35:28;;;;;;;;;;;;;;;3.11;52.64;99000.16;6211825;23;19915;-64
2023/02/28 19:37:53;;;;;;;;;;;;;;;3.07;52.56;99008.00;6213702;23;19908;-64
2023/02/28 19:40:18;;;;;;;;;;;;;;;3.05;52.80;99009.75;6187534;23;20351;-64
2023/02/28 19:42:44;;;;;;;;;;;;;;;3.01;52.87;99002.13;6213424;23;20260;-64
2023/02/28 19:45:11;;;;;;;;;;;;;;;2.97;52.79;98998.75;6214501;23;19946;-64
2023/02/28 19:47:37;;;;;;;;;;;;;;;2.88;52.08;98998.97;6213672;23;19915;-64
2023/02/28 19:50:02;;;;;;;;;;;;;;;2.86;54.18;99000.75;6214184;23;19908;-64
2023/02/28 19:52:27;;;;;;;;;;;;;;;2.84;53.32;98999.94;6186147;23;20251;-64
2023/02/28 19:54:52;;;;;;;;;;;;;;;2.82;52.90;98997.41;6187828;23;19982;-64
2023/02/28 19:57:18;;;;;;;;;;;;;;;2.79;53.93;99001.81;6186711;23;20351;-64
2023/02/28 19:59:43;;;;;;;;;;;;;;;2.76;53.28;99007.06;6187417;23;19935;-64
2023/02/28 20:02:12;;;;;;;;;;;;;;;2.69;52.86;99008.09;6186809;23;19918;-64
2023/02/28 20:04:37;;;;;;;;;;;;;;;2.68;53.18;98996.00;6187468;23;19918;-64
2023/02/28 20:07:02;;;;;;;;;;;;;;;2.65;53.72;98996.09;6214021;23;19939;-64
2023/02/28 20:09:31;;;;;;;;;;;;;;;2.64;54.49;99003.00;6187537;23;19919;-64
2023/02/28 20:11:58;;;;;;;;;;;;;;;2.62;54.27;98994.44;6213553;23;20003;-64
2023/02/28 20:14:23;;;;;;;;;;;;;;;2.59;53.47;98995.34;6213073;23;20361;-64
2023/02/28 20:16:48;;;;;;;;;;;;;;;2.53;53.96;98992.91;6214358;23;19912;-64
2023/02/28 20:19:13;;;;;;;;;;;;;;;2.48;54.98;98999.06;6186240;23;20323;-65
2023/02/28 20:21:40;;;;;;;;;;;;;;;2.44;54.26;99000.88;6212753;23;20883;-64
2023/02/28 20:24:06;;;;;;;;;;;;;;;2.38;54.54;98995.88;6213617;23;19994;-64
2023/02/28 20:26:31;;;;;;;;;;;;;;;2.32;54.95;99001.19;6212771;23;19951;-64
2023/02/28 20:28:56;;;;;;;;;;;;;;;2.29;54.41;99001.25;6213830;23;19954;-64
2023/02/28 20:31:22;;;;;;;;;;;;;;;2.25;55.92;98995.28;6213164;23;19916;-64
2023/02/28 20:33:48;;;;;;;;;;;;;;;2.20;54.61;98997.09;6186526;23;19908;-63
2023/02/28 20:36:14;;;;;;;;;;;;;;;2.15;54.59;98998.97;6187222;23;19907;-65
2023/02/28 20:38:40;;;;;;;;;;;;;;;2.13;55.21;98999.00;6213690;23;20394;-64
2023/02/28 20:41:05;;;;;;;;;;;;;;;2.11;55.47;99003.34;6187317;23;19916;-64
2023/02/28 20:43:31;;;;;;;;;;;;;;;2.08;55.95;98995.66;6186557;23;19911;-64
2023/02/28 20:45:57;;;;;;;;;;;;;;;2.04;55.73;98996.59;6185627;23;19912;-65
2023/02/28 20:48:22;;;;;;;;;;;;;;;2.01;56.15;98999.25;6213693;23;19940;-65
2023/02/28 20:50:48;;;;;;;;;;;;;;;1.98;56.59;99001.06;6213459;23;19930;-64
2023/02/28 20:53:14;;;;;;;;;;;;;;;1.94;55.91;99004.59;6213134;23;19962;-65
2023/02/28 20:55:39;;;;;;;;;;;;;;;1.93;56.65;99001.16;6186400;23;20251;-64
2023/02/28 20:58:04;;;;;;;;;;;;;;;1.84;56.71;98984.09;6213227;23;19915;-65
2023/02/28 21:00:29;;;;;;;;;;;;;;;1.83;56.75;98991.91;6213805;23;19908;-64
2023/02/28 21:02:54;;;;;;;;;;;;;;;1.79;57.38;99001.44;6213580;23;19915;-64
2023/02/28 21:05:20;;;;;;;;;;;;;;;1.69;56.70;98999.94;6214568;23;19916;-65
2023/02/28 21:07:45;;;;;;;;;;;;;;;1.72;56.77;98989.53;6188632;23;20239;-64
2023/02/28 21:10:10;;;;;;;;;;;;;;;1.72;57.39;98991.25;6187799;23;20306;-64
2023/02/28 21:12:35;;;;;;;;;;;;;;;1.65;57.39;98999.16;6186794;23;20361;-64
2023/02/28 21:15:01;;;;;;;;;;;;;;;1.59;56.89;98994.09;6216097;23;20365;-65
2023/02/28 21:17:27;;;;;;;;;;;;;;;1.57;57.08;98995.84;6216204;23;20472;-65
2023/02/28 21:19:52;;;;;;;;;;;;;;;1.55;57.48;98992.44;6188222;23;19998;-64
2023/02/28 21:22:17;;;;;;;;;;;;;;;1.52;58.09;98997.69;6214548;23;20040;-64
2023/02/28 21:24:42;;;;;;;;;;;;;;;1.49;58.57;99005.50;6215187;23;19940;-64
2023/02/28 21:27:10;;;;;;;;;;;;;;;1.49;58.11;98996.88;6214792;23;20209;-64
2023/02/28 21:29:35;;;;;;;;;;;;;;;1.49;58.83;98996.88;6188324;23;19908;-64
2023/02/28 21:32:01;;;;;;;;;;;;;;;1.47;58.61;99001.22;6214744;23;19911;-65
2023/02/28 21:34:27;;;;;;;;;;;;;;;1.42;58.31;98991.81;6212411;23;19908;-64
2023/02/28 21:36:53;;;;;;;;;;;;;;;1.40;57.20;98997.91;6215598;23;20255;-64
2023/02/28 21:39:20;;;;;;;;;;;;;;;1.28;56.63;99003.31;6215996;23;19908;-64
2023/02/28 21:41:45;;;;;;;;;;;;;;;1.19;58.46;99004.31;6188788;23;19977;-65
2023/02/28 21:44:16;;;;;;;;;;;;;;;1.21;59.42;99004.31;6187514;23;19916;-64
2023/02/28 21:46:42;;;;;;;;;;;;;;;1.27;63.70;99014.50;6214928;23;19916;-65
2023/02/28 21:49:07;;;;;;;;;;;;;;;1.67;71.97;99012.88;6188788;23;19987;-65
2023/02/28 21:51:32;;;;;;;;;;;;;;;2.11;73.65;99011.13;6215611;23;19908;-65
2023/02/28 21:53:58;;;;;;;;;;;;;;;2.55;73.38;99001.50;6214714;23;19915;-65
2023/02/28 21:56:24;;;;;;;;;;;;;;;2.93;71.70;99010.09;6187316;23;19907;-65
2023/02/28 21:58:49;;;;;;;;;;;;;;;3.25;69.32;99000.63;6188804;23;20354;-65
2023/02/28 22:01:16;;;;;;;;;;;;;;;3.52;69.36;98997.31;6188868;23;19939;-65
2023/02/28 22:03:41;;;;;;;;;;;;;;;3.72;67.16;98998.50;6188587;23;20374;-65
2023/02/28 22:06:14;;;;;;;;;;;;;;;3.90;66.47;98997.97;6188016;23;19908;-65
2023/02/28 22:08:39;;;;;;;;;;;;;;;4.00;64.39;98996.81;6188969;23;19907;-65
2023/02/28 22:11:05;;;;;;;;;;;;;;;4.10;64.25;98992.19;6189053;23;20461;-65
2023/02/28 22:13:30;;;;;;;;;;;;;;;4.17;63.51;98998.06;6214825;23;20398;-65
2023/02/28 22:15:59;;;;;;;;;;;;;;;4.22;62.54;99002.19;6186990;23;19912;-65
2023/02/28 22:18:25;;;;;;;;;;;;;;;4.26;61.78;98997.75;6215227;23;19912;-65
2023/02/28 22:20:53;;;;;;;;;;;;;;;4.31;61.75;98995.03;6215372;23;20382;-64
2023/02/28 22:23:18;;;;;;;;;;;;;;;4.39;62.26;98995.66;6189052;23;19908;-65
2023/02/28 22:25:44;;;;;;;;;;;;;;;4.43;62.67;98990.28;6214353;23;19912;-64
2023/02/28 22:28:09;;;;;;;;;;;;;;;4.46;62.63;98994.56;6214021;23;19986;-65
2023/02/28 22:30:34;;;;;;;;;;;;;;;4.48;61.33;98997.97;6214901;23;19935;-65
2023/02/28 22:32:59;;;;;;;;;;;;;;;4.48;61.91;98998.81;6215145;23;19915;-65
2023/02/28 22:35:25;;;;;;;;;;;;;;;4.57;61.85;99004.59;6188108;23;19911;-66
2023/02/28 22:37:50;;;;;;;;;;;;;;;4.59;62.13;99003.66;6213797;23;19908;-65
2023/02/28 22:40:15;;;;;;;;;;;;;;;4.61;61.90;99001.88;6214083;23;19915;-65
2023/02/28 22:42:40;;;;;;;;;;;;;;;4.58;59.94;98998.53;6215323;23;19908;-65
2023/02/28 22:45:06;;;;;;;;;;;;;;;4.62;60.93;99000.13;6214636;23;19923;-65
2023/02/28 22:47:31;;;;;;;;;;;;;;;4.58;59.84;98994.19;6214391;23;19982;-64
2023/02/28 22:49:56;;;;;;;;;;;;;;;4.50;58.72;98998.75;6187813;23;19908;-65
2023/02/28 22:52:21;;;;;;;;;;;;;;;4.56;60.06;98995.13;6214739;23;20389;-65
2023/02/28 22:54:50;;;;;;;;;;;;;;;4.52;58.28;98987.41;6214409;23;20327;-65
2023/02/28 22:57:15;;;;;;;;;;;;;;;4.50;58.79;98984.00;6214391;23;19908;-65
2023/02/28 22:59:40;;;;;;;;;;;;;;;4.57;60.61;98991.63;6214092;23;19957;-65
2023/02/28 23:02:05;;;;;;;;;;;;;;;4.56;60.69;98990.78;6187988;23;19962;-65
2023/02/28 23:04:31;;;;;;;;;;;;;;;4.52;58.73;98989.16;6214627;23;19915;-65
2023/02/28 23:06:56;;;;;;;;;;;;;;;4.56;60.36;98992.53;6214934;23;19912;-65
2023/02/28 23:09:21;;;;;;;;;;;;;;;4.55;60.17;98988.22;6213430;23;20002;-65
2023/02/28 23:11:47;;;;;;;;;;;;;;;4.53;61.01;98978.72;6187472;23;19908;-65
2023/02/28 23:14:13;;;;;;;;;;;;;;;4.50;57.51;98986.59;6214834;23;19945;-64
2023/02/28 23:16:38;;;;;;;;;;;;;;;4.46;58.51;98987.59;6188883;23;19982;-65
2023/02/28 23:19:07;;;;;;;;;;;;;;;4.47;60.22;98988.44;6213888;23;19908;-64
2023/02/28 23:21:33;;;;;;;;;;;;;;;4.47;60.01;98991.94;6162081;23;19912;-65
2023/02/28 23:23:59;;;;;;;;;;;;;;;4.40;58.41;98995.59;6188063;23;19990;-65
2023/02/28 23:26:24;;;;;;;;;;;;;;;4.47;61.06;98997.13;6187680;23;19929;-65
2023/02/28 23:28:50;;;;;;;;;;;;;;;4.45;59.94;98998.91;6214889;23;19932;-64
2023/02/28 23:31:15;;;;;;;;;;;;;;;4.44;60.56;98996.34;6213266;23;19991;-65
2023/02/28 23:33:40;;;;;;;;;;;;;;;4.44;60.59;99001.53;6162167;23;19943;-65
2023/02/28 23:36:08;;;;;;;;;;;;;;;4.38;57.40;99000.00;6163382;23;19908;-65
2023/02/28 23:38:33;;;;;;;;;;;;;;;4.42;60.37;98993.81;6189047;23;19908;-65
2023/02/28 23:40:58;;;;;;;;;;;;;;;4.39;59.06;98996.50;6213652;23;20346;-64
2023/02/28 23:43:24;;;;;;;;;;;;;;;4.46;60.41;99000.59;6187276;23;20480;-65
2023/02/28 23:45:55;;;;;;;;;;;;;;;4.46;59.58;99007.53;6187874;23;20384;-65
2023/02/28 23:48:21;;;;;;;;;;;;;;;4.38;58.39;99002.59;6214370;23;19908;-65
2023/02/28 23:50:46;;;;;;;;;;;;;;;4.39;58.57;99004.28;6187701;23;19958;-65
2023/02/28 23:53:12;;;;;;;;;;;;;;;4.47;61.24;99002.31;6186717;23;19912;-65
2023/02/28 23:55:37;;;;;;;;;;;;;;;4.45;59.85;98993.72;6188329;23;20258;-65
2023/02/28 23:58:02;;;;;;;;;;;;;;;4.45;58.78;99000.66;6187177;23;20371;-65
